BGSFCYFB

Guest
Details From BGSF - Kangerlussuaq
To CYFB - Iqaluit
Flight Number -
Tags Generated
Created
Modified
Stats Distance 486 nm / 900 km
Max Altitude 0 ft / 0 m
Waypoints 3
Social Downloads 4
Likes 0
Share VATSIM

Download

Looking for another format? Having issues loading an existing format? Contact us
Advertisement - Login to hide

Notes

Generated

Route

BGSF YFB CYFB

ID Type Via Altitude Latitude Longitude Leg Dist Tot Dist Heading (true) Name
O BGSF APT - 0 ft / 0 m 67.00561˚ -50.74307˚ - 0 nm - -
YFB VOR - 0 ft / 0 m 63.74167˚ -68.47333˚ 482 nm 482 nm 254° / 238° FROBAY VOR
O CYFB APT - 0 ft / 0 m 63.76497˚ -68.57398˚ 3 nm 485 nm 298° / 298° -

Altitude Profile

Advertisement - Login to hide

Weather


0- 5 10 15 20 25 30 35+ Temperature / ° C

Clouds and Precipitation
Forecast for 2017-12-16 06:00 UTC. Updated 37 minutes ago

Ground ~20,000 ft ~40,000 ft Winds

BGSF

Details ICAO BGSF (SFJ)
Name Kangerlussuaq
Region Greenland
Timezone America/Godthab (UTC-3.0)
Stats Elevation 165 ft / 50 m (AMSL)
Location 67.011605° -50.714721°
Runways 2
Magnetic Variation 29.033° W

METAR

BGSF 160250Z AUTO 07011KT 9999NDV FEW060/// BKN080/// BKN095/// M07/M11 Q0983

Decode

TAF

Not found

Departure Runways

ID Width Length Bearing (true) Bearing (mag) Surface Threshold Offset Overrun Length
09 197 ft / 60 m 9,169 ft / 2,795 m 61.57° 90.60° Asphalt 0 ft / 0 m 509 ft / 155 m
10 197 ft / 60 m 9,187 ft / 2,800 m 61.55° 90.58° Asphalt 0 ft / 0 m 0 ft / 0 m
27 197 ft / 60 m 9,169 ft / 2,795 m 241.63° 270.66° Asphalt 0 ft / 0 m 171 ft / 52 m
28 197 ft / 60 m 9,187 ft / 2,800 m 241.60° 270.63° Asphalt 0 ft / 0 m 0 ft / 0 m

CYFB

Details ICAO CYFB (YFB)
Name Iqaluit
Region Canada
Timezone America/Iqaluit (UTC-5.0)
Stats Elevation 110 ft / 34 m (AMSL)
Location 63.756565° -68.556058°
Runways 1
Magnetic Variation 27.541° W

METAR

CYFB 160300Z 26003KT 200V010 15SM -SN BKN062 M04/M09 A2912 RMK SC7 SLP867

Decode

TAF

TAF TAF AMD CYFB 160324Z 1603/1624 05020G30KT WS005/09040KT P6SM -SN BKN030 OVC080 TEMPO 1603/1606 VRB03KT 3SM -SN BKN020 BECMG 1604/1606 34015KT FM160600 34015KT P6SM -SN SCT020 BKN060 TEMPO 1606/1612 3SM -SN OVC020 PROB30 1609/1612 1SM -SN VV010 FM161200 32020KT P6SM -SN FEW030 OVC070 RMK NXT FCST BY 160600Z

Decode

Destination Runways

ID Width Length Bearing (true) Bearing (mag) Surface Threshold Offset Overrun Length
17 200 ft / 61 m 8,605 ft / 2,623 m 135.58° 163.12° Asphalt 0 ft / 0 m 210 ft / 64 m
35 200 ft / 61 m 8,605 ft / 2,623 m 315.62° 343.16° Asphalt 0 ft / 0 m 243 ft / 74 m

Popular Alternatives